createdAt,value
2018-08-10T00:02:15.817Z,20.23
2018-08-10T00:04:47.444Z,20.24
2018-08-10T00:07:17.324Z,20.15
2018-08-10T00:09:47.909Z,20.20
2018-08-10T00:12:19.693Z,20.08
2018-08-10T00:14:51.070Z,20.05
2018-08-10T00:17:25.588Z,19.97
2018-08-10T00:19:57.015Z,19.96
2018-08-10T00:22:27.441Z,19.94
2018-08-10T00:27:34.637Z,19.76
2018-08-10T00:30:07.928Z,19.76
2018-08-10T00:32:42.582Z,19.76
2018-08-10T00:35:13.932Z,19.76
2018-08-10T00:37:48.527Z,19.70
2018-08-10T00:40:20.540Z,19.75
2018-08-10T00:42:51.969Z,19.76
2018-08-10T00:45:39.648Z,19.76
2018-08-10T00:48:10.540Z,19.69
2018-08-10T00:50:44.207Z,19.77
2018-08-10T00:53:16.541Z,19.70
2018-08-10T00:55:46.657Z,19.91
2018-08-10T00:58:18.786Z,19.84
2018-08-10T01:00:51.817Z,19.86
2018-08-10T01:03:21.942Z,19.74
2018-08-10T01:05:55.983Z,19.48
2018-08-10T01:08:31.873Z,19.26
2018-08-10T01:11:05.306Z,19.07
2018-08-10T01:13:35.398Z,18.95
2018-08-10T01:16:05.401Z,18.88
2018-08-10T01:18:35.166Z,18.77
2018-08-10T01:21:13.311Z,18.71
2018-08-10T01:23:44.885Z,18.57
2018-08-10T01:26:14.652Z,18.60
2018-08-10T01:28:51.667Z,18.49
2018-08-10T01:31:21.922Z,18.34
2018-08-10T01:33:52.268Z,18.26
2018-08-10T01:36:22.689Z,18.24
2018-08-10T01:43:24.441Z,18.01
2018-08-10T01:45:56.217Z,17.95
2018-08-10T01:48:25.951Z,17.99
2018-08-10T01:51:24.220Z,17.91
2018-08-10T01:53:54.231Z,17.85
2018-08-10T01:56:25.435Z,17.80
2018-08-10T01:58:55.484Z,17.71
2018-08-10T02:01:25.596Z,17.63
2018-08-10T02:03:55.394Z,17.55
2018-08-10T02:06:25.461Z,17.55
2018-08-10T02:08:56.575Z,17.50
2018-08-10T02:11:27.005Z,17.49
2018-08-10T02:13:56.746Z,17.54
2018-08-10T02:16:29.420Z,17.53
2018-08-10T02:18:59.053Z,17.45
2018-08-10T02:21:29.094Z,17.37
2018-08-10T02:24:08.406Z,17.34
2018-08-10T02:26:38.543Z,17.31
2018-08-10T02:29:10.009Z,17.30
2018-08-10T02:31:39.895Z,17.24
2018-08-10T02:34:09.590Z,17.25
2018-08-10T02:36:39.342Z,17.16
2018-08-10T02:39:15.326Z,17.11
2018-08-10T02:41:45.183Z,17.12
2018-08-10T02:44:15.566Z,17.08
2018-08-10T02:49:25.588Z,17.05
2018-08-10T02:51:56.230Z,17.01
2018-08-10T02:54:26.655Z,17.07
2018-08-10T02:56:56.596Z,17.04
2018-08-10T02:59:26.318Z,17.01
2018-08-10T03:01:57.660Z,16.97
2018-08-10T03:04:27.507Z,16.92
2018-08-10T03:06:58.237Z,16.87
2018-08-10T03:09:27.983Z,16.79
2018-08-10T03:11:58.514Z,16.74
2018-08-10T03:14:56.653Z,16.78
2018-08-10T03:17:54.325Z,16.80
2018-08-10T03:20:24.174Z,16.82
2018-08-10T03:22:53.923Z,16.75
2018-08-10T03:28:17.585Z,16.73
2018-08-10T03:33:41.339Z,16.78
2018-08-10T03:36:13.417Z,16.69
2018-08-10T03:38:44.432Z,16.73
2018-08-10T03:41:14.829Z,16.73
2018-08-10T03:43:50.604Z,16.70
2018-08-10T03:46:22.098Z,16.68
2018-08-10T03:48:59.816Z,16.67
2018-08-10T03:51:29.636Z,16.60
2018-08-10T03:53:59.990Z,16.55
2018-08-10T03:56:36.459Z,16.43
2018-08-10T03:59:07.204Z,16.35
2018-08-10T04:01:38.862Z,16.35
2018-08-10T04:04:08.724Z,16.30
2018-08-10T04:06:41.701Z,15.73
2018-08-10T04:09:13.065Z,16.28
2018-08-10T04:11:43.574Z,16.26
2018-08-10T04:17:11.457Z,16.20
2018-08-10T04:19:41.905Z,16.17
2018-08-10T04:22:13.478Z,16.15
2018-08-10T04:24:43.546Z,16.08
2018-08-10T04:27:13.461Z,16.05
2018-08-10T04:29:43.283Z,16.10
2018-08-10T04:32:17.881Z,16.13
2018-08-10T04:34:49.460Z,16.14
2018-08-10T04:37:21.568Z,16.12
2018-08-10T04:39:51.872Z,16.01
2018-08-10T04:42:27.768Z,15.90
2018-08-10T04:44:59.659Z,15.89
2018-08-10T04:47:30.678Z,15.93
2018-08-10T04:50:01.104Z,15.91
2018-08-10T04:52:31.109Z,15.91
2018-08-10T04:55:01.184Z,15.92
2018-08-10T04:57:44.155Z,15.86
2018-08-10T05:00:15.265Z,15.86
2018-08-10T05:02:44.956Z,15.87
2018-08-10T05:05:17.688Z,15.87
2018-08-10T05:07:48.129Z,15.89
2018-08-10T05:13:17.376Z,15.64
2018-08-10T05:15:47.227Z,15.64
2018-08-10T05:18:17.269Z,15.67
2018-08-10T05:20:47.531Z,15.79
2018-08-10T05:23:17.292Z,15.84
2018-08-10T05:25:47.167Z,15.84
2018-08-10T05:28:16.824Z,15.95
2018-08-10T05:30:46.478Z,15.98
2018-08-10T05:33:16.449Z,15.97
2018-08-10T05:35:48.813Z,15.99
2018-08-10T05:38:21.165Z,16.11
2018-08-10T05:40:51.556Z,16.06
2018-08-10T05:43:21.566Z,16.09
2018-08-10T05:45:51.869Z,16.10
2018-08-10T05:48:21.587Z,16.16
2018-08-10T05:50:57.084Z,16.26
2018-08-10T05:54:40.988Z,16.33
2018-08-10T05:57:10.696Z,16.29
2018-08-10T06:02:17.542Z,16.55
2018-08-10T06:04:47.822Z,16.80
2018-08-10T06:07:17.536Z,17.00
2018-08-10T06:12:22.686Z,17.08
2018-08-10T06:14:52.532Z,17.20
2018-08-10T06:17:33.039Z,17.20
2018-08-10T06:48:41.773Z,17.34
2018-08-10T06:51:11.779Z,17.59
2018-08-10T06:53:42.016Z,17.84
2018-08-10T06:56:13.901Z,17.84
2018-08-10T06:58:45.234Z,17.77
2018-08-10T07:01:15.064Z,17.78
2018-08-10T07:03:45.550Z,17.80
2018-08-10T07:06:17.055Z,17.89
2018-08-10T07:08:47.187Z,18.02
2018-08-10T07:11:17.627Z,18.03
2018-08-10T07:13:47.486Z,18.09
2018-08-10T07:19:16.829Z,18.14
2018-08-10T07:21:46.895Z,18.34
2018-08-10T07:24:19.626Z,18.28
2018-08-10T07:26:49.668Z,18.29
2018-08-10T07:29:20.240Z,18.34
2018-08-10T07:31:52.011Z,18.60
2018-08-10T07:34:22.339Z,18.66
2018-08-10T07:36:52.508Z,18.67
2018-08-10T07:39:23.697Z,18.89
2018-08-10T07:41:53.470Z,18.95
2018-08-10T07:44:23.264Z,19.19
2018-08-10T07:46:53.894Z,19.38
2018-08-10T07:49:24.723Z,19.38
2018-08-10T07:51:54.545Z,19.51
2018-08-10T07:54:24.924Z,19.55
2018-08-10T07:57:01.535Z,19.55
2018-08-10T07:59:31.318Z,19.62
2018-08-10T08:02:01.656Z,19.71
2018-08-10T08:04:31.419Z,19.72
2018-08-10T08:07:01.335Z,19.82
2018-08-10T08:09:31.187Z,19.84
2018-08-10T08:12:01.810Z,20.06
2018-08-10T08:14:31.888Z,20.28
2018-08-10T08:17:01.648Z,20.40
2018-08-10T08:19:31.370Z,20.83
2018-08-10T08:22:07.409Z,21.74
2018-08-10T08:24:37.591Z,23.09
2018-08-10T08:29:43.615Z,24.31
2018-08-10T08:34:01.911Z,24.45
2018-08-10T08:36:31.795Z,25.71
2018-08-10T08:41:10.097Z,25.85
2018-08-10T08:45:54.713Z,26.81
2018-08-10T08:48:29.944Z,27.60
2018-08-10T08:51:01.388Z,27.42
2018-08-10T08:53:31.748Z,27.99
2018-08-10T08:56:03.057Z,27.62
2018-08-10T08:58:33.480Z,27.69
2018-08-10T09:05:08.822Z,29.01
2018-08-10T09:07:38.929Z,30.37
2018-08-10T09:10:15.733Z,30.87
2018-08-10T09:12:45.574Z,30.33
2018-08-10T09:15:16.866Z,29.79
2018-08-10T09:17:46.614Z,29.06
2018-08-10T09:25:31.344Z,25.09
2018-08-10T09:28:01.397Z,24.44
2018-08-10T09:30:31.244Z,24.31
2018-08-10T09:33:01.619Z,25.77
2018-08-10T09:35:31.474Z,25.45
2018-08-10T09:38:02.313Z,25.02
2018-08-10T09:40:32.218Z,24.51
2018-08-10T09:43:02.001Z,25.86
2018-08-10T10:04:38.007Z,28.84
2018-08-10T10:07:11.478Z,26.94
2018-08-10T10:09:47.110Z,25.71
2018-08-10T10:12:17.096Z,24.36
2018-08-10T10:14:49.426Z,24.05
2018-08-10T10:17:21.019Z,23.70
2018-08-10T10:19:52.045Z,25.39
2018-08-10T10:22:26.883Z,27.29
2018-08-10T10:24:56.834Z,27.40
2018-08-10T10:33:05.868Z,25.35
2018-08-10T10:35:49.462Z,24.77
2018-08-10T10:40:53.531Z,24.57
2018-08-10T10:43:23.298Z,24.16
2018-08-10T10:45:53.373Z,23.39
2018-08-10T10:48:24.306Z,23.35
2018-08-10T10:50:54.533Z,22.96
2018-08-10T10:53:25.304Z,23.14
2018-08-10T10:55:55.305Z,23.43
2018-08-10T10:58:27.204Z,23.49
2018-08-10T11:00:57.529Z,23.61
2018-08-10T11:03:36.135Z,23.53
2018-08-10T11:06:06.707Z,23.62
2018-08-10T11:08:37.093Z,23.76
2018-08-10T11:11:11.535Z,23.75
2018-08-10T11:13:42.440Z,23.85
2018-08-10T11:16:13.048Z,23.62
2018-08-10T11:18:43.498Z,23.50
2018-08-10T11:21:13.618Z,23.28
2018-08-10T11:23:43.989Z,22.88
2018-08-10T11:26:14.369Z,22.79
2018-08-10T11:28:44.211Z,22.96
2018-08-10T11:31:14.163Z,23.07
2018-08-10T11:33:46.302Z,23.15
2018-08-10T11:36:23.689Z,23.50
2018-08-10T11:38:54.601Z,25.03
2018-08-10T11:41:30.479Z,25.51
2018-08-10T11:44:00.671Z,25.56
2018-08-10T11:46:31.034Z,25.74
2018-08-10T11:49:01.285Z,25.55
2018-08-10T11:51:31.986Z,25.52
2018-08-10T11:54:04.226Z,25.75
2018-08-10T11:56:48.434Z,25.33
2018-08-10T11:59:18.768Z,25.24
2018-08-10T12:01:49.970Z,25.57
2018-08-10T12:04:20.656Z,26.05
2018-08-10T12:06:52.275Z,26.36
2018-08-10T12:09:23.626Z,26.59
2018-08-10T12:12:01.658Z,25.85
2018-08-10T12:14:32.071Z,25.23
2018-08-10T12:17:03.139Z,25.19
2018-08-10T12:19:34.204Z,25.57
2018-08-10T12:22:05.058Z,25.80
2018-08-10T12:24:35.250Z,25.53
2018-08-10T12:27:08.550Z,25.55
2018-08-10T12:29:39.614Z,25.27
2018-08-10T12:34:14.510Z,24.73
2018-08-10T12:36:44.174Z,24.59
2018-08-10T12:39:15.760Z,24.18
2018-08-10T12:41:45.337Z,24.21
2018-08-10T12:44:16.030Z,24.15
2018-08-10T12:46:45.839Z,24.13
2018-08-10T12:49:15.392Z,24.26
2018-08-10T12:51:45.090Z,24.74
2018-08-10T12:54:15.114Z,25.04
2018-08-10T12:56:44.719Z,25.01
2018-08-10T12:59:14.382Z,25.24
2018-08-10T13:01:43.947Z,25.34
2018-08-10T13:04:14.789Z,25.09
2018-08-10T13:06:44.840Z,24.96
2018-08-10T13:09:23.784Z,24.58
2018-08-10T13:11:53.546Z,24.55
2018-08-10T13:14:23.662Z,24.40
2018-08-10T13:16:53.396Z,24.38
2018-08-10T13:19:22.978Z,24.11
2018-08-10T13:21:53.280Z,24.05
2018-08-10T13:24:23.421Z,24.13
2018-08-10T13:26:53.147Z,24.34
2018-08-10T13:29:23.122Z,25.19
2018-08-10T13:31:52.820Z,25.65
2018-08-10T13:34:24.989Z,26.42
2018-08-10T13:36:54.870Z,26.21
2018-08-10T13:39:29.662Z,25.98
2018-08-10T13:41:59.306Z,25.60
2018-08-10T13:44:50.468Z,25.31
2018-08-10T13:47:27.674Z,25.97
2018-08-10T13:49:57.599Z,29.48
2018-08-10T13:52:32.899Z,31.88
2018-08-10T13:55:03.356Z,33.46
2018-08-10T13:57:33.015Z,34.41
2018-08-10T14:00:03.037Z,35.32
2018-08-10T14:02:34.502Z,35.69
2018-08-10T14:05:04.559Z,34.89
2018-08-10T14:07:34.486Z,33.32
2018-08-10T14:10:06.515Z,30.79
2018-08-10T14:12:37.452Z,30.43
2018-08-10T14:15:07.791Z,29.74
2018-08-10T14:17:37.786Z,30.82
2018-08-10T14:20:08.641Z,30.00
2018-08-10T14:22:39.609Z,28.08
2018-08-10T14:25:11.091Z,26.75
2018-08-10T14:27:41.583Z,26.53
2018-08-10T14:30:14.535Z,26.52
2018-08-10T14:32:47.665Z,26.50
2018-08-10T14:35:18.321Z,29.19
2018-08-10T14:37:48.268Z,30.24
2018-08-10T14:40:18.060Z,32.04
2018-08-10T14:42:50.046Z,32.73
2018-08-10T14:45:33.648Z,31.44
2018-08-10T14:48:03.534Z,29.68
2018-08-10T14:50:33.971Z,28.08
2018-08-10T14:53:03.774Z,27.33
2018-08-10T14:55:35.199Z,27.89
2018-08-10T14:58:05.013Z,29.04
2018-08-10T15:00:37.414Z,29.99
2018-08-10T15:03:07.845Z,30.36
2018-08-10T15:05:38.929Z,31.02
2018-08-10T15:08:10.482Z,30.83
2018-08-10T15:10:43.229Z,29.56
2018-08-10T15:13:12.932Z,28.03
2018-08-10T15:15:43.612Z,26.72
2018-08-10T15:21:07.289Z,28.08
2018-08-10T15:23:38.393Z,27.98
2018-08-10T15:26:09.509Z,27.37
2018-08-10T15:28:45.607Z,26.70
2018-08-10T15:31:19.277Z,28.90
2018-08-10T15:33:49.650Z,31.82
2018-08-10T15:36:23.394Z,31.96
2018-08-10T15:38:56.026Z,33.14
2018-08-10T15:41:26.921Z,33.25
2018-08-10T15:43:57.692Z,33.21
2018-08-10T15:46:28.336Z,33.34
2018-08-10T15:48:58.944Z,33.21
2018-08-10T15:51:33.757Z,33.44
2018-08-10T15:54:05.236Z,32.83
2018-08-10T15:56:37.290Z,30.66
2018-08-10T15:59:12.811Z,30.98
2018-08-10T16:04:22.551Z,32.59
2018-08-10T16:06:56.739Z,32.45
2018-08-10T16:09:27.884Z,32.71
2018-08-10T16:11:59.359Z,31.61
2018-08-10T16:14:29.657Z,30.18
2018-08-10T16:17:00.494Z,29.10
2018-08-10T16:19:31.815Z,27.48
2018-08-10T16:22:02.489Z,26.30
2018-08-10T16:24:32.658Z,25.98
2018-08-10T16:27:02.918Z,25.25
2018-08-10T16:29:32.860Z,25.07
2018-08-10T16:32:03.428Z,24.92
2018-08-10T16:34:34.621Z,24.88
2018-08-10T16:37:05.543Z,24.88
2018-08-10T16:39:35.523Z,24.61
2018-08-10T16:42:05.904Z,24.46
2018-08-10T16:44:37.154Z,24.21
2018-08-10T16:47:07.330Z,24.13
2018-08-10T16:49:37.686Z,24.17
2018-08-10T16:52:08.420Z,24.17
2018-08-10T16:54:38.289Z,24.10
2018-08-10T16:57:08.311Z,24.11
2018-08-10T16:59:38.604Z,24.16
2018-08-10T17:02:09.980Z,24.09
2018-08-10T17:04:40.305Z,23.96
2018-08-10T17:07:10.945Z,23.94
2018-08-10T17:09:41.493Z,23.91
2018-08-10T17:12:11.419Z,23.86
2018-08-10T17:14:41.451Z,23.83
2018-08-10T17:17:11.351Z,23.71
2018-08-10T17:19:43.522Z,23.61
2018-08-10T17:22:13.863Z,23.62
2018-08-10T17:24:44.371Z,23.67
2018-08-10T17:27:15.776Z,23.45
2018-08-10T17:30:04.108Z,23.32
2018-08-10T17:38:17.643Z,22.85
2018-08-10T17:40:49.984Z,22.73
2018-08-10T17:43:27.373Z,22.72
2018-08-10T17:45:59.546Z,22.73
2018-08-10T17:48:37.782Z,22.70
2018-08-10T17:51:34.087Z,22.72
2018-08-10T18:02:25.282Z,22.47
2018-08-10T18:05:02.532Z,22.33
2018-08-10T18:07:33.630Z,22.21
2018-08-10T18:10:04.458Z,22.09
2018-08-10T18:12:36.413Z,21.96
2018-08-10T18:15:09.762Z,21.82
2018-08-10T18:17:41.838Z,21.73
2018-08-10T18:20:16.706Z,21.59
2018-08-10T18:22:48.047Z,21.51
2018-08-10T18:25:20.693Z,21.46
2018-08-10T18:27:53.974Z,21.39
2018-08-10T18:30:25.782Z,21.32
2018-08-10T18:32:56.102Z,21.12
2018-08-10T18:35:33.430Z,21.05
2018-08-10T18:38:03.475Z,20.98
2018-08-10T18:40:33.500Z,20.80
2018-08-10T18:43:03.582Z,20.71
2018-08-10T18:45:33.536Z,20.63
2018-08-10T18:48:03.552Z,20.52
2018-08-10T18:50:34.158Z,20.47
2018-08-10T18:53:04.701Z,20.41
2018-08-10T18:55:52.976Z,20.47
2018-08-10T18:58:24.025Z,20.47
2018-08-10T19:00:55.372Z,20.50
2018-08-10T19:03:28.516Z,20.50
2018-08-10T19:05:58.803Z,20.47
